createdAt,value
2022-09-03T00:00:37.030Z,101078.50
2022-09-03T00:03:14.008Z,101040.97
2022-09-03T00:05:50.080Z,101106.28
2022-09-03T00:08:26.049Z,101110.03
2022-09-03T00:11:00.909Z,101117.25
2022-09-03T00:13:35.154Z,101112.69
2022-09-03T00:16:11.150Z,101110.59
2022-09-03T00:18:46.074Z,101111.91
2022-09-03T00:21:21.058Z,101105.56
2022-09-03T00:23:53.154Z,101127.28
2022-09-03T00:26:28.993Z,101105.59
2022-09-03T00:29:04.322Z,101106.84
2022-09-03T00:31:37.727Z,101105.50
2022-09-03T00:34:13.110Z,101102.44
2022-09-03T00:36:44.095Z,101056.13
2022-09-03T00:39:17.319Z,101112.06
2022-09-03T00:42:06.806Z,101094.66
2022-09-03T00:44:55.256Z,101117.59
2022-09-03T00:47:31.427Z,101107.31
2022-09-03T00:50:12.151Z,101113.88
2022-09-03T00:52:52.868Z,101106.09
2022-09-03T00:55:39.732Z,101106.78
2022-09-03T00:58:22.853Z,101105.81
2022-09-03T01:00:53.786Z,101104.59
2022-09-03T01:03:36.398Z,101115.84
2022-09-03T01:06:20.262Z,101112.28
2022-09-03T01:09:04.591Z,101108.53
2022-09-03T01:11:47.365Z,101112.22
2022-09-03T01:14:29.510Z,101112.59
2022-09-03T01:17:05.091Z,101114.53
2022-09-03T01:20:12.328Z,101112.25
2022-09-03T01:23:01.939Z,101113.69
2022-09-03T01:25:46.002Z,101096.34
2022-09-03T01:28:32.999Z,101118.78
2022-09-03T01:31:11.557Z,101104.19
2022-09-03T01:33:46.274Z,101112.22
2022-09-03T01:36:23.217Z,101116.59
2022-09-03T01:38:57.590Z,101104.78
2022-09-03T01:41:54.215Z,101105.63
2022-09-03T01:44:40.616Z,101104.19
2022-09-03T01:47:19.044Z,101104.53
2022-09-03T01:49:57.963Z,101097.47
2022-09-03T01:52:35.213Z,101119.16
2022-09-03T01:55:20.133Z,101105.38
2022-09-03T01:57:56.297Z,101121.50
2022-09-03T02:00:29.001Z,101116.13
2022-09-03T02:03:02.071Z,101119.03
2022-09-03T02:05:30.860Z,101106.63
2022-09-03T02:08:01.797Z,101115.16
2022-09-03T02:10:35.352Z,101114.41
2022-09-03T02:13:08.460Z,101117.59
2022-09-03T02:15:41.140Z,101113.19
2022-09-03T02:18:16.738Z,101118.94
2022-09-03T02:20:48.031Z,101118.34
2022-09-03T02:23:17.947Z,101115.66
2022-09-03T02:25:58.221Z,101117.81
2022-09-03T02:28:28.790Z,101102.94
2022-09-03T02:30:59.163Z,101120.75
2022-09-03T02:33:28.354Z,101126.38
2022-09-03T02:35:57.446Z,101112.25
2022-09-03T02:38:27.563Z,101112.97
2022-09-03T02:40:56.839Z,101118.94
2022-09-03T02:43:32.046Z,101123.06
2022-09-03T02:46:04.720Z,101104.78
2022-09-03T02:48:33.550Z,101114.78
2022-09-03T02:51:02.428Z,101115.13
2022-09-03T02:53:43.122Z,101110.16
2022-09-03T02:56:12.268Z,101122.00
2022-09-03T02:58:41.465Z,101118.69
2022-09-03T03:01:11.837Z,101120.50
2022-09-03T03:03:45.167Z,101122.97
2022-09-03T03:06:14.476Z,101060.06
2022-09-03T03:08:44.282Z,101119.03
2022-09-03T03:11:13.934Z,101121.25
2022-09-03T03:13:42.860Z,101127.09
2022-09-03T03:16:14.020Z,101110.53
2022-09-03T03:18:43.167Z,101122.97
2022-09-03T03:21:13.928Z,101126.25
2022-09-03T03:23:42.899Z,101132.59
2022-09-03T03:26:14.182Z,101130.63
2022-09-03T03:28:42.987Z,101135.84
2022-09-03T03:31:15.208Z,101133.06
2022-09-03T03:33:44.301Z,101139.50
2022-09-03T03:36:16.316Z,101055.91
2022-09-03T03:38:46.260Z,101147.25
2022-09-03T03:41:18.267Z,101142.22
2022-09-03T03:43:47.543Z,101145.78
2022-09-03T03:46:18.172Z,101135.41
2022-09-03T03:48:49.304Z,101138.56
2022-09-03T03:51:18.190Z,101137.56
2022-09-03T03:53:47.196Z,101133.31
2022-09-03T03:56:17.113Z,101143.53
2022-09-03T03:58:46.086Z,101125.16
2022-09-03T04:01:18.599Z,101138.53
2022-09-03T04:03:48.195Z,101140.38
2022-09-03T04:06:18.607Z,101119.03
2022-09-03T04:08:49.710Z,101148.31
2022-09-03T04:11:21.365Z,101140.03
2022-09-03T04:13:51.211Z,101139.75
2022-09-03T04:16:22.866Z,101142.69
2022-09-03T04:18:52.097Z,101142.72
2022-09-03T04:21:23.136Z,101149.50
2022-09-03T04:23:53.686Z,101123.69
2022-09-03T04:26:24.925Z,101151.69
2022-09-03T04:28:54.311Z,101157.97
2022-09-03T04:31:24.716Z,101163.88
2022-09-03T04:33:55.039Z,101160.50
2022-09-03T04:36:26.458Z,101171.72
2022-09-03T04:38:56.947Z,101173.44
2022-09-03T04:41:27.202Z,101157.94
2022-09-03T04:43:57.465Z,101156.56
2022-09-03T04:46:33.900Z,101156.06
2022-09-03T04:49:03.843Z,101164.75
2022-09-03T04:51:33.252Z,101157.69
2022-09-03T04:54:03.380Z,101154.47
2022-09-03T04:56:34.625Z,101155.88
2022-09-03T04:59:06.020Z,101161.50
2022-09-03T05:01:38.641Z,101161.72
2022-09-03T05:04:08.991Z,101162.38
2022-09-03T05:06:38.479Z,101158.41
2022-09-03T05:09:07.572Z,101157.09
2022-09-03T05:11:36.400Z,101147.66
2022-09-03T05:14:06.129Z,101131.41
2022-09-03T05:16:36.568Z,101156.72
2022-09-03T05:19:08.037Z,101140.25
2022-09-03T05:21:37.255Z,101150.50
2022-09-03T05:24:06.788Z,101141.06
2022-09-03T05:26:39.182Z,101150.88
2022-09-03T05:29:09.040Z,101161.69
2022-09-03T05:31:40.456Z,101156.63
2022-09-03T05:34:10.650Z,101159.31
2022-09-03T05:36:49.173Z,101159.91
2022-09-03T05:39:18.415Z,101158.34
2022-09-03T05:41:50.279Z,101132.72
2022-09-03T05:44:19.173Z,101143.94
2022-09-03T05:46:49.920Z,101160.75
2022-09-03T05:49:19.213Z,101153.72
2022-09-03T05:51:48.350Z,101155.13
2022-09-03T05:54:18.623Z,101159.00
2022-09-03T05:56:47.657Z,101161.16
2022-09-03T05:59:16.741Z,101159.66
2022-09-03T06:01:52.362Z,101162.22
2022-09-03T06:04:24.088Z,101165.13
2022-09-03T06:06:52.964Z,101145.59
2022-09-03T06:09:23.664Z,101105.59
2022-09-03T06:11:54.377Z,101087.97
2022-09-03T06:14:26.255Z,101128.75
2022-09-03T06:16:57.024Z,101138.53
2022-09-03T06:19:27.466Z,101140.38
2022-09-03T06:21:56.492Z,101140.38
2022-09-03T06:24:28.434Z,101144.69
2022-09-03T06:26:57.913Z,101140.69
2022-09-03T06:29:27.719Z,101142.25
2022-09-03T06:31:57.413Z,101141.88
2022-09-03T06:34:28.730Z,101124.25
2022-09-03T06:36:57.562Z,101142.25
2022-09-03T06:39:27.173Z,101153.34
2022-09-03T06:41:55.912Z,101159.81
2022-09-03T06:44:36.165Z,101168.41
2022-09-03T06:47:04.954Z,101160.91
2022-09-03T06:49:35.361Z,101160.72
2022-09-03T06:52:04.485Z,101155.19
2022-09-03T06:54:33.373Z,101134.75
2022-09-03T06:57:04.678Z,101142.88
2022-09-03T06:59:36.503Z,101149.56
2022-09-03T07:02:05.612Z,101158.72
2022-09-03T07:04:35.896Z,101151.06
2022-09-03T07:07:05.666Z,101153.78
2022-09-03T07:09:38.492Z,101162.25
2022-09-03T07:12:07.572Z,101162.41
2022-09-03T07:14:36.706Z,101155.28
2022-09-03T07:17:05.641Z,101154.78
2022-09-03T07:19:36.123Z,101154.22
2022-09-03T07:22:05.523Z,101159.75
2022-09-03T07:24:34.462Z,101167.88
2022-09-03T07:27:03.288Z,101172.19
2022-09-03T07:29:32.288Z,101159.03
2022-09-03T07:32:01.669Z,101106.75
2022-09-03T07:34:30.468Z,101148.03
2022-09-03T07:37:00.931Z,101169.94
2022-09-03T07:39:30.234Z,101167.47
2022-09-03T07:41:59.662Z,101166.34
2022-09-03T07:44:28.901Z,101163.25
2022-09-03T07:46:57.757Z,101154.47
2022-09-03T07:49:26.625Z,101168.78
2022-09-03T07:51:55.397Z,101160.47
2022-09-03T07:54:27.478Z,101150.56
2022-09-03T07:56:56.966Z,101163.38
2022-09-03T07:59:26.743Z,101149.03
2022-09-03T08:01:55.539Z,101127.00
2022-09-03T08:04:26.785Z,101166.56
2022-09-03T08:06:57.112Z,101139.94
2022-09-03T08:09:33.100Z,101165.50
2022-09-03T08:12:01.957Z,101169.25
2022-09-03T08:14:31.836Z,101166.63
2022-09-03T08:17:01.501Z,101138.56
2022-09-03T08:19:30.303Z,101165.13
2022-09-03T08:21:59.297Z,101140.75
2022-09-03T08:24:28.293Z,101166.72
2022-09-03T08:26:58.776Z,101157.09
2022-09-03T08:29:28.282Z,101159.88
2022-09-03T08:31:59.475Z,101165.94
2022-09-03T08:34:28.559Z,101173.84
2022-09-03T08:37:00.090Z,101159.28
2022-09-03T08:39:29.553Z,101155.16
2022-09-03T08:42:21.776Z,101144.41
2022-09-03T08:44:56.278Z,101155.41
2022-09-03T08:47:35.101Z,101146.13
2022-09-03T08:50:11.967Z,101092.84
2022-09-03T08:52:54.728Z,101135.56
2022-09-03T08:55:29.499Z,101129.78
2022-09-03T08:58:05.616Z,101133.19
2022-09-03T09:00:48.163Z,101128.13
2022-09-03T09:03:42.891Z,101117.19
2022-09-03T09:06:50.456Z,101125.94
2022-09-03T09:09:30.315Z,101103.25
2022-09-03T09:12:19.393Z,101118.28
2022-09-03T09:14:57.581Z,101103.03
2022-09-03T09:17:43.431Z,101122.53
2022-09-03T09:20:22.667Z,101116.16
2022-09-03T09:22:56.638Z,101116.50
2022-09-03T09:25:27.188Z,101117.56
2022-09-03T09:28:00.941Z,101107.38
2022-09-03T09:30:33.441Z,101090.41
2022-09-03T09:33:02.467Z,101093.69
2022-09-03T09:35:31.671Z,101114.25
2022-09-03T09:38:01.399Z,101103.75
2022-09-03T09:41:12.457Z,101121.13
2022-09-03T09:43:42.805Z,101103.41
2022-09-03T09:46:16.065Z,101114.47
2022-09-03T09:48:52.420Z,101090.81
2022-09-03T09:51:23.488Z,101109.78
2022-09-03T09:54:03.394Z,101118.25
2022-09-03T09:56:32.583Z,101117.97
2022-09-03T09:59:07.259Z,101115.50
2022-09-03T10:01:40.066Z,101115.44
2022-09-03T10:04:13.662Z,101108.56
2022-09-03T10:06:58.236Z,101122.88
2022-09-03T10:09:31.359Z,101120.22
2022-09-03T10:12:15.523Z,101103.19
2022-09-03T10:14:51.550Z,101114.81
2022-09-03T10:17:37.178Z,101101.03
2022-09-03T10:20:30.464Z,101110.53
2022-09-03T10:23:03.590Z,101116.44
2022-09-03T10:25:39.114Z,101116.31
2022-09-03T10:28:13.187Z,101108.34
2022-09-03T10:31:01.630Z,101097.94
2022-09-03T10:33:38.969Z,101105.13
2022-09-03T10:36:17.322Z,101106.97
2022-09-03T10:38:53.552Z,101094.19
2022-09-03T10:41:34.523Z,101086.97
2022-09-03T10:44:26.731Z,101099.22
2022-09-03T10:47:07.354Z,101098.94
2022-09-03T10:49:49.768Z,101091.31
2022-09-03T10:52:28.146Z,101099.00
2022-09-03T10:55:09.561Z,101095.72
2022-09-03T10:57:49.684Z,101098.41
2022-09-03T11:00:20.326Z,101077.13
2022-09-03T11:03:43.235Z,101085.66
2022-09-03T11:06:19.421Z,101090.66
2022-09-03T11:08:56.182Z,101093.44
2022-09-03T11:11:32.993Z,101079.72
2022-09-03T11:14:08.957Z,101082.63
2022-09-03T11:16:45.172Z,101085.97
2022-09-03T11:19:18.367Z,101090.81
2022-09-03T11:21:50.364Z,101075.31
2022-09-03T11:24:24.284Z,101089.53
2022-09-03T11:26:58.978Z,101075.59
2022-09-03T11:29:39.100Z,101074.97
2022-09-03T11:32:16.452Z,101072.94
2022-09-03T11:34:50.118Z,101062.31
2022-09-03T11:37:23.453Z,101073.09
2022-09-03T11:39:58.914Z,101078.31
2022-09-03T11:42:35.614Z,101081.09
2022-09-03T11:45:34.979Z,101019.50
2022-09-03T11:48:19.506Z,101061.47
2022-09-03T11:50:57.565Z,101068.97
2022-09-03T11:53:34.716Z,101067.50
2022-09-03T11:56:18.593Z,101059.75
2022-09-03T11:58:48.689Z,101054.13
2022-09-03T12:01:19.777Z,101047.16
2022-09-03T12:03:53.165Z,101051.59
2022-09-03T12:06:39.054Z,101047.91
2022-09-03T12:09:31.427Z,101041.75
2022-09-03T12:12:14.060Z,100990.13
2022-09-03T12:14:53.666Z,101025.75
2022-09-03T12:17:31.967Z,101035.91
2022-09-03T12:20:01.567Z,101026.72
2022-09-03T12:22:31.621Z,101030.50
2022-09-03T12:25:11.948Z,101022.59
2022-09-03T12:27:45.280Z,101030.31
2022-09-03T12:30:18.681Z,101008.16
2022-09-03T12:32:47.976Z,101034.53
2022-09-03T12:38:10.515Z,100975.31
2022-09-03T12:43:37.894Z,101026.84
2022-09-03T12:46:16.328Z,101019.09
2022-09-03T12:51:51.965Z,101025.09
2022-09-03T12:54:23.745Z,101014.28
2022-09-03T12:56:57.673Z,101025.94
2022-09-03T12:59:30.337Z,101008.56
2022-09-03T13:02:03.761Z,101014.81
2022-09-03T13:04:35.630Z,100998.28
2022-09-03T13:07:12.475Z,101014.63
2022-09-03T13:09:43.375Z,101022.22
2022-09-03T13:12:25.385Z,101008.84
2022-09-03T13:14:55.030Z,100990.31
2022-09-03T13:17:37.379Z,100997.03
2022-09-03T13:20:23.312Z,101003.13
2022-09-03T13:23:03.782Z,100999.13
2022-09-03T13:25:41.868Z,101004.53
2022-09-03T13:28:32.071Z,100991.38
2022-09-03T13:31:20.371Z,100995.84
2022-09-03T13:33:55.015Z,100998.38
2022-09-03T13:36:28.847Z,100992.22
2022-09-03T13:39:06.130Z,100995.09
2022-09-03T13:41:41.379Z,100983.13
2022-09-03T13:44:17.048Z,100993.88
2022-09-03T13:46:50.090Z,100988.00
2022-09-03T13:49:51.023Z,100993.28
2022-09-03T13:52:30.497Z,100998.09
2022-09-03T13:55:08.248Z,100988.59
2022-09-03T13:57:46.749Z,100990.75
2022-09-03T14:00:26.819Z,100999.97
2022-09-03T14:02:59.555Z,100988.56
2022-09-03T14:05:42.902Z,100977.84
2022-09-03T14:08:22.188Z,100989.66
2022-09-03T14:11:00.893Z,100988.38
2022-09-03T14:13:49.892Z,100988.25
2022-09-03T14:16:32.892Z,100994.91
2022-09-03T14:19:03.018Z,100986.00
2022-09-03T14:21:40.229Z,100918.31
2022-09-03T14:24:16.483Z,100985.13
2022-09-03T14:26:53.666Z,100973.88
2022-09-03T14:29:27.001Z,100968.84
2022-09-03T14:32:20.876Z,100974.31
2022-09-03T14:35:17.088Z,100900.22
2022-09-03T14:38:25.761Z,100969.84
2022-09-03T14:41:05.635Z,100967.66
2022-09-03T14:43:59.666Z,100879.81
2022-09-03T14:46:42.541Z,100975.19
2022-09-03T14:49:27.877Z,100951.66
2022-09-03T14:52:09.386Z,100966.47
2022-09-03T14:54:52.346Z,100963.81
2022-09-03T14:57:37.369Z,100958.94
2022-09-03T15:00:18.502Z,100959.81
2022-09-03T15:03:17.313Z,100956.41
2022-09-03T15:06:14.432Z,100954.53
2022-09-03T15:08:56.843Z,100959.66
2022-09-03T15:11:30.101Z,100956.41
2022-09-03T15:14:05.917Z,100956.81
2022-09-03T15:16:50.352Z,100954.28
2022-09-03T15:19:42.084Z,100957.50
2022-09-03T15:22:21.267Z,100965.97
2022-09-03T15:24:59.282Z,100962.44
2022-09-03T15:27:50.231Z,100964.78
2022-09-03T15:30:21.248Z,100953.94
2022-09-03T15:33:02.825Z,100974.91
2022-09-03T15:36:12.606Z,100958.25
2022-09-03T15:38:49.763Z,100922.50
2022-09-03T15:41:41.490Z,100957.09
2022-09-03T15:44:19.159Z,100913.81
2022-09-03T15:46:56.911Z,100971.53
2022-09-03T15:49:36.047Z,100970.09
2022-09-03T15:52:12.374Z,100969.19
2022-09-03T15:54:49.696Z,100936.78
2022-09-03T15:57:23.907Z,100955.09
2022-09-03T16:00:00.367Z,100960.53
2022-09-03T16:02:35.525Z,100961.41
2022-09-03T16:05:14.309Z,100940.91
2022-09-03T16:07:59.547Z,100953.19
2022-09-03T16:10:43.865Z,100948.91
2022-09-03T16:13:37.266Z,100956.94
2022-09-03T16:16:09.739Z,100956.97
2022-09-03T16:18:43.167Z,100935.31
2022-09-03T16:21:21.655Z,100957.44
2022-09-03T16:23:56.748Z,100955.41
2022-09-03T16:26:33.672Z,100952.78
2022-09-03T16:29:07.924Z,100958.72
2022-09-03T16:31:53.573Z,100947.66
2022-09-03T16:34:30.992Z,100969.50
2022-09-03T16:37:11.144Z,100889.44
2022-09-03T16:39:52.207Z,100955.59
2022-09-03T16:42:31.645Z,100955.41
2022-09-03T16:45:12.941Z,100958.31
2022-09-03T16:47:54.114Z,100946.50
2022-09-03T16:50:35.196Z,100945.31
2022-09-03T16:53:15.184Z,100957.78
2022-09-03T16:56:02.503Z,100962.53
2022-09-03T16:58:45.024Z,100936.72
2022-09-03T17:01:22.711Z,100973.34
2022-09-03T17:04:14.248Z,100969.38
2022-09-03T17:07:04.067Z,100974.53
2022-09-03T17:09:47.961Z,100979.03
2022-09-03T17:12:21.290Z,100972.84
2022-09-03T17:15:18.040Z,100979.81
2022-09-03T17:18:09.795Z,100978.59
2022-09-03T17:20:50.093Z,100979.59
2022-09-03T17:23:41.983Z,100974.91
2022-09-03T17:26:14.005Z,100980.88
2022-09-03T17:28:56.186Z,100985.25
2022-09-03T17:31:41.886Z,100978.59
2022-09-03T17:34:27.732Z,100982.56
2022-09-03T17:37:07.455Z,100893.63
2022-09-03T17:39:54.341Z,100920.28
2022-09-03T17:42:32.177Z,100964.91
2022-09-03T17:45:15.468Z,100982.03
2022-09-03T17:48:05.590Z,100950.91
2022-09-03T17:50:47.119Z,100974.13
2022-09-03T17:53:26.188Z,100979.50
2022-09-03T17:55:58.852Z,100978.75
2022-09-03T17:58:35.061Z,100980.63
2022-09-03T18:01:16.485Z,100903.84
2022-09-03T18:03:51.366Z,100980.06
2022-09-03T18:06:28.717Z,100960.78
2022-09-03T18:09:04.056Z,100979.53
2022-09-03T18:11:36.950Z,100978.66
2022-09-03T18:14:18.448Z,100968.13
2022-09-03T18:16:56.178Z,100955.53
2022-09-03T18:19:53.401Z,100982.84
2022-09-03T18:22:44.706Z,100976.63
2022-09-03T18:25:32.885Z,100967.53
2022-09-03T18:28:23.724Z,100965.84
2022-09-03T18:31:13.339Z,100986.81
2022-09-03T18:34:00.247Z,100988.06
2022-09-03T18:36:50.396Z,100904.84
2022-09-03T18:39:44.798Z,100985.63
2022-09-03T18:42:41.834Z,100988.13
2022-09-03T18:46:07.873Z,100976.06
2022-09-03T18:48:55.168Z,100986.09
2022-09-03T18:51:50.058Z,100988.06
2022-09-03T18:55:07.315Z,100979.69
2022-09-03T18:58:06.296Z,100982.16
2022-09-03T19:01:00.400Z,100981.97
2022-09-03T19:03:58.233Z,100983.66
2022-09-03T19:06:54.079Z,100983.03
2022-09-03T19:10:00.434Z,100966.16
2022-09-03T19:13:02.593Z,100994.69
2022-09-03T19:15:53.127Z,100960.59
2022-09-03T19:18:56.686Z,100999.16
2022-09-03T19:21:50.995Z,101004.25
2022-09-03T19:24:41.527Z,100991.66
2022-09-03T19:27:54.226Z,101003.53
2022-09-03T19:30:52.170Z,100933.66
2022-09-03T19:33:49.948Z,100995.91
2022-09-03T19:36:44.342Z,101012.09
2022-09-03T19:39:47.160Z,101012.69
2022-09-03T19:42:45.961Z,100992.50
2022-09-03T19:45:43.185Z,101019.28
2022-09-03T19:48:36.689Z,101010.75
2022-09-03T19:51:30.056Z,100981.50
2022-09-03T19:54:21.712Z,101011.22
2022-09-03T19:57:09.688Z,101017.81
2022-09-03T20:00:00.027Z,101017.22
2022-09-03T20:02:46.738Z,101020.88
2022-09-03T20:05:39.260Z,100993.69
2022-09-03T20:08:26.565Z,101020.69
2022-09-03T20:10:59.385Z,100995.13
2022-09-03T20:13:28.563Z,101005.47
2022-09-03T20:16:08.413Z,101026.00
2022-09-03T20:18:49.340Z,101033.75
2022-09-03T20:21:26.504Z,101034.25
2022-09-03T20:24:01.650Z,101038.50
2022-09-03T20:26:41.587Z,101024.97
2022-09-03T20:29:27.583Z,101045.06
2022-09-03T20:32:10.807Z,101046.59
2022-09-03T20:34:52.657Z,101049.72
2022-09-03T20:37:29.967Z,101051.50
2022-09-03T20:40:18.340Z,101045.28
2022-09-03T20:43:09.556Z,101051.97
2022-09-03T20:45:54.863Z,101059.97
2022-09-03T20:48:33.140Z,101060.25
2022-09-03T20:51:12.413Z,100988.16
2022-09-03T20:54:08.958Z,101055.03
2022-09-03T20:56:53.735Z,101027.06
2022-09-03T20:59:31.938Z,101054.03
2022-09-03T21:02:12.179Z,101057.28
2022-09-03T21:04:54.509Z,101040.53
2022-09-03T21:07:35.892Z,100984.25
2022-09-03T21:10:14.068Z,101043.44
2022-09-03T21:12:51.630Z,101055.63
2022-09-03T21:15:29.898Z,101030.59
2022-09-03T21:18:07.810Z,101057.59
2022-09-03T21:20:45.972Z,101051.47
2022-09-03T21:23:24.497Z,101050.50
2022-09-03T21:25:59.934Z,101051.75
2022-09-03T21:28:33.791Z,101054.34
2022-09-03T21:31:07.283Z,101055.88
2022-09-03T21:33:40.125Z,101046.41
2022-09-03T21:36:15.859Z,101057.25
2022-09-03T21:39:00.065Z,101049.31
2022-09-03T21:41:33.825Z,101040.53
2022-09-03T21:44:09.202Z,101053.06
2022-09-03T21:46:54.211Z,101059.28
2022-09-03T21:49:29.561Z,101020.19
2022-09-03T21:52:10.746Z,101048.41
2022-09-03T21:54:41.868Z,101030.66
2022-09-03T21:57:18.817Z,101035.66
2022-09-03T22:00:09.695Z,101050.00
2022-09-03T22:02:42.914Z,101038.63
2022-09-03T22:05:12.204Z,101057.59
2022-09-03T22:08:13.481Z,101054.25
2022-09-03T22:10:55.153Z,101048.34
2022-09-03T22:13:31.876Z,101052.00
2022-09-03T22:16:13.768Z,101049.91
2022-09-03T22:18:44.277Z,101050.50
2022-09-03T22:21:20.619Z,101047.09
2022-09-03T22:24:14.814Z,101054.94
2022-09-03T22:26:52.098Z,101048.25
2022-09-03T22:29:36.047Z,101056.16
2022-09-03T22:32:13.381Z,101037.91
2022-09-03T22:35:05.603Z,101039.94
2022-09-03T22:37:50.902Z,101066.97
2022-09-03T22:40:27.490Z,101061.88
2022-09-03T22:43:22.098Z,101059.56
2022-09-03T22:46:07.109Z,101042.88
2022-09-03T22:49:07.663Z,101067.72
2022-09-03T22:51:52.387Z,101061.63
2022-09-03T22:54:35.941Z,101033.16
2022-09-03T22:57:09.235Z,101065.81
2022-09-03T22:59:42.085Z,101072.16
2022-09-03T23:02:15.131Z,101069.19
2022-09-03T23:04:52.162Z,101047.28
2022-09-03T23:07:28.080Z,101061.81
2022-09-03T23:10:01.899Z,101049.41
2022-09-03T23:12:38.284Z,101043.22
2022-09-03T23:15:11.696Z,101055.91
2022-09-03T23:17:47.420Z,101050.78
2022-09-03T23:20:22.236Z,101053.34
2022-09-03T23:22:54.664Z,101057.84
2022-09-03T23:25:30.157Z,101060.28
2022-09-03T23:28:04.185Z,101056.88
2022-09-03T23:30:33.175Z,101057.84
2022-09-03T23:33:02.850Z,101059.09
2022-09-03T23:35:39.437Z,101059.81
2022-09-03T23:38:18.251Z,101027.44
2022-09-03T23:40:50.208Z,101062.13
2022-09-03T23:43:49.560Z,101045.81
2022-09-03T23:46:25.792Z,101067.72
2022-09-03T23:49:14.687Z,101055.66
2022-09-03T23:51:58.729Z,101065.91
2022-09-03T23:54:38.867Z,101064.31
2022-09-03T23:57:23.083Z,101073.47
